Aérodrome :
LOGIN :

S'inscrire | Disclaimer

   EN    FR    IT 

 










Légende :    VFR   VFR Marginal   IFR   IFR Intensif   IFR Très Intensif
Visi : 
Plafond : 
>= 8 km
>= 3000ft
5 à 8 km
1000 à 3000 ft
1500m à 5 km
500 à 1000 ft
800 à 1500m
200 à 500 ft
< 800m
< 200 ft
Symboles :   Orages  Brouillard  Fortes neiges  Fortes précipitations  Vent > 20 kt
SIGMETs :   Divers  Orages  Givrage  Turbulence  Onde Orograph.  Cendres Volcan.







- Altitude de l'aérodrome : 27 ft
- Code IATA : PMI


LEPA - Palma de Mallorca

DERNIER METAR :
  • 180530Z 02003KT 340V050 9999 FEW004 05/05 Q1022 TEMPO 2000 BR

METARs EXPIRÉS :
  • 180500Z 01003KT 340V040 9999 1500E R24L/P2000 R24R/P2000 BCFG FEW001 04/04 Q1023 NOSIG
  • 180450Z 03003KT 350V060 7000 0400 R24L/1200U R24R/P2000 BCFG SCT001 04/04 Q1022 NOSIG
  • 180430Z 01003KT 340V050 5000 0900 R24L/0650D R24R/P2000 BCFG BKN001 04/04 Q1023 NOSIG
  • 180400Z 06005KT 350V070 9999 FEW001 04/04 Q1023 TEMPO 2000 BR
  • 180330Z 35003KT 320V030 9999 FEW008 05/05 Q1023 TEMPO 2000 BR
  • 180300Z 35004KT 320V030 9999 2500E BCFG FEW002 06/06 Q1023 BECMG 0800 FG VV002

TAF TAF LEPA
Valide du 18 à 00h jusqu'au 19 à 00h UTC


172300Z 1800/1824 05005KT 9999 FEW018 TX19/1812Z TN04/1806Z
TEMPO 1800/1809 2000 BR BKN008
PROB30
TEMPO 1800/1808 0800 FG VV002
BECMG 1809/1811 22007KT
Pas de NOTAMs connus pour ce terrain.



MET'MAP, la Météo Aéronautique d'un coup d'oeil ! - Copyright ORBIFLY Décembre 2007 - Disclaimer

ORBIFLY MET'MAP TEAM :

Programmation & Développement : Alexandra Zaïnal
Conception & Développement : Baudouin d'Aumeries
Co-Programmation & Développement : Marc-Olivier Méhu
Soutien technique & logistique : Manuel Goepfert

Contact : metmap@orbifly.com




SOURCES & CREDITS :

   NOAA